Aviation Digital Data Service (ADDS)

Output produced by TAFs form (0752 UTC 25 March 2017)
found at http://www.aviationweather.gov/adds/tafs/
 
METAR text: LYBE 250730Z 33008KT 300V360 CAVOK 09/03 Q1026 NOSIG
Conditions at: LYBE (BELGRADE/SURCIN , CS) observed 0730 UTC 25 March 2017
Temperature: 9.0°C (48°F)
Dewpoint: 3.0°C (37°F) [RH = 66%]
Pressure (altimeter): 30.30 inches Hg (1026.0 mb)
Winds: from the NNW (330 degrees) at 9 MPH (8 knots; 4.2 m/s)
Visibility: 6 or more miles (10+ km)
Ceiling: ceiling and visibility are OK
Clouds: unknown
Weather: no significant weather observed at this time

Forecast for: LYBE (BELGRADE/SURCIN , CS)
Text: TAF LYBE 250500Z 2506/2606 32009KT 9999 SCT033 TX16/2513Z TN05/2605Z
Forecast period: 0600 UTC 25 March 2017 to 0600 UTC 26 March 2017
Forecast type: FROM: standard forecast or significant change
Winds: from the NW (320 degrees) at 10 MPH (9 knots; 4.7 m/s)
Visibility: 6 or more miles (10+ km)
Clouds: scattered clouds at 3300 feet AGL
Weather: no significant weather forecast for this period